createdAt,value
2023-07-25T00:01:12.804Z,6.90
2023-07-25T00:03:42.416Z,7.90
2023-07-25T00:06:10.059Z,8.80
2023-07-25T00:08:37.878Z,8.00
2023-07-25T00:13:33.129Z,9.00
2023-07-25T00:20:58.370Z,10.00
2023-07-25T00:23:26.009Z,6.30
2023-07-25T00:25:53.802Z,8.60
2023-07-25T00:30:51.360Z,9.60
2023-07-25T00:33:19.003Z,6.70
2023-07-25T00:35:53.805Z,9.50
2023-07-25T00:38:21.548Z,12.90
2023-07-25T00:40:49.153Z,8.20
2023-07-25T00:43:17.133Z,6.50
2023-07-25T00:45:45.027Z,6.60
2023-07-25T00:48:13.610Z,7.90
2023-07-25T00:50:41.537Z,6.50
2023-07-25T00:53:11.063Z,6.60
2023-07-25T00:55:38.702Z,8.40
2023-07-25T00:58:06.344Z,7.80
2023-07-25T01:00:34.014Z,6.40
2023-07-25T01:03:03.078Z,6.70
2023-07-25T01:05:30.769Z,7.70
2023-07-25T01:10:25.962Z,6.80
2023-07-25T01:12:53.673Z,9.20
2023-07-25T01:15:21.425Z,8.00
2023-07-25T01:20:16.651Z,6.80
2023-07-25T01:22:44.186Z,8.30
2023-07-25T01:25:11.828Z,8.80
2023-07-25T01:27:39.639Z,7.00
2023-07-25T01:32:35.169Z,7.90
2023-07-25T01:35:02.909Z,9.60
2023-07-25T01:39:58.668Z,7.20
2023-07-25T01:47:26.653Z,6.60
2023-07-25T01:49:54.613Z,13.40
2023-07-25T01:54:50.814Z,8.30
2023-07-25T01:57:18.523Z,9.00
2023-07-25T01:59:46.147Z,7.50
2023-07-25T02:02:14.098Z,6.90
2023-07-25T02:07:10.803Z,7.20
2023-07-25T02:09:38.514Z,6.80
2023-07-25T02:14:34.510Z,7.60
2023-07-25T02:17:02.292Z,7.00
2023-07-25T02:24:25.245Z,10.60
2023-07-25T02:29:20.519Z,7.40
2023-07-25T02:31:48.214Z,7.30
2023-07-25T02:34:16.655Z,9.10
2023-07-25T02:36:44.359Z,8.00
2023-07-25T02:39:12.050Z,10.50
2023-07-25T02:41:39.846Z,10.10
2023-07-25T02:49:03.341Z,9.00
2023-07-25T02:51:31.339Z,8.40
2023-07-25T02:53:59.347Z,7.70
2023-07-25T02:58:57.634Z,7.00
2023-07-25T03:01:25.660Z,7.80
2023-07-25T03:03:53.295Z,9.10
2023-07-25T03:06:21.062Z,7.40
2023-07-25T03:08:48.889Z,7.30
2023-07-25T03:11:16.420Z,10.80
2023-07-25T03:13:43.913Z,7.40
2023-07-25T03:16:11.985Z,11.20
2023-07-25T03:21:07.349Z,7.40
2023-07-25T03:23:35.071Z,7.60
2023-07-25T03:26:02.732Z,7.10
2023-07-25T03:28:30.452Z,7.30
2023-07-25T03:30:58.494Z,9.40
2023-07-25T03:33:26.192Z,7.30
2023-07-25T03:35:53.673Z,9.10
2023-07-25T03:38:21.342Z,7.70
2023-07-25T03:40:48.946Z,9.00
2023-07-25T03:43:16.793Z,9.70
2023-07-25T03:48:12.099Z,11.00
2023-07-25T03:50:39.802Z,8.40
2023-07-25T03:53:09.398Z,8.40
2023-07-25T03:58:04.852Z,10.40
2023-07-25T04:00:32.517Z,8.10
2023-07-25T04:03:13.229Z,7.10
2023-07-25T04:05:42.760Z,8.40
2023-07-25T04:10:37.851Z,8.20
2023-07-25T04:15:33.137Z,6.80
2023-07-25T04:18:00.839Z,11.90
2023-07-25T04:25:27.387Z,13.30
2023-07-25T04:27:55.148Z,9.30
2023-07-25T04:30:22.965Z,7.30
2023-07-25T04:35:18.048Z,13.80
2023-07-25T04:37:45.581Z,7.70
2023-07-25T04:40:13.539Z,12.70
2023-07-25T04:42:41.398Z,11.00
2023-07-25T04:47:36.604Z,10.90
2023-07-25T04:50:04.407Z,7.70
2023-07-25T04:57:28.528Z,8.20
2023-07-25T04:59:56.029Z,7.60
2023-07-25T05:02:23.608Z,7.90
2023-07-25T05:04:51.369Z,10.00
2023-07-25T05:09:46.624Z,8.40
2023-07-25T05:12:14.716Z,16.40
2023-07-25T05:14:42.226Z,7.60
2023-07-25T05:17:09.697Z,9.20
2023-07-25T05:19:37.485Z,7.20
2023-07-25T05:24:32.734Z,8.20
2023-07-25T05:29:28.352Z,7.10
2023-07-25T05:31:56.225Z,7.60
2023-07-25T05:34:23.793Z,13.60
2023-07-25T05:36:51.303Z,8.30
2023-07-25T05:39:18.885Z,7.40
2023-07-25T05:41:46.513Z,8.20
2023-07-25T05:44:14.306Z,6.90
2023-07-25T05:51:36.983Z,6.70
2023-07-25T05:54:04.702Z,10.20
2023-07-25T05:56:32.749Z,6.40
2023-07-25T05:59:00.707Z,6.00
2023-07-25T06:01:28.386Z,6.30
2023-07-25T06:06:23.666Z,8.30
2023-07-25T06:08:51.547Z,7.30
2023-07-25T06:11:22.512Z,9.40
2023-07-25T06:13:54.168Z,11.40
2023-07-25T06:16:21.929Z,9.20
2023-07-25T06:18:50.175Z,5.50
2023-07-25T06:21:17.996Z,6.00
2023-07-25T06:23:45.536Z,6.40
2023-07-25T06:26:13.149Z,7.60
2023-07-25T06:31:08.637Z,6.50
2023-07-25T06:33:36.672Z,5.50
2023-07-25T06:36:04.310Z,5.40
2023-07-25T06:38:31.847Z,5.20
2023-07-25T06:40:59.668Z,6.70
2023-07-25T06:43:27.215Z,5.60
2023-07-25T06:45:55.012Z,5.60
2023-07-25T06:48:22.589Z,5.80
2023-07-25T06:50:50.145Z,6.20
2023-07-25T06:53:17.864Z,5.80
2023-07-25T06:55:45.610Z,5.60
2023-07-25T07:00:42.676Z,7.00
2023-07-25T07:05:38.140Z,5.90
2023-07-25T07:10:35.060Z,5.80
2023-07-25T07:13:02.643Z,5.60
2023-07-25T07:15:30.259Z,5.60
2023-07-25T07:17:57.867Z,5.60
2023-07-25T07:22:53.264Z,6.70
2023-07-25T07:25:20.865Z,6.30
2023-07-25T07:27:49.060Z,8.50
2023-07-25T07:32:44.503Z,6.70
2023-07-25T07:35:12.172Z,12.50
2023-07-25T07:37:39.838Z,6.40
2023-07-25T07:40:07.943Z,7.20
2023-07-25T07:42:35.458Z,7.10
2023-07-25T11:45:56.909Z,11.20
2023-07-25T11:48:25.014Z,15.70
2023-07-25T11:50:52.812Z,11.70
2023-07-25T11:53:23.034Z,9.90
2023-07-25T11:55:53.741Z,10.00
2023-07-25T11:58:22.575Z,13.90
2023-07-25T12:00:52.950Z,11.50
2023-07-25T12:03:24.320Z,11.60
2023-07-25T12:06:00.009Z,10.30
2023-07-25T12:08:35.199Z,11.50
2023-07-25T12:11:08.808Z,16.10
2023-07-25T12:13:53.659Z,12.50
2023-07-25T12:16:28.757Z,12.80
2023-07-25T12:18:58.787Z,10.00
2023-07-25T12:21:37.158Z,14.50
2023-07-25T12:24:12.408Z,16.00
2023-07-25T12:26:44.328Z,11.80
2023-07-25T12:29:22.692Z,10.00
2023-07-25T12:31:50.485Z,14.10
2023-07-25T12:34:20.796Z,11.60
2023-07-25T12:36:51.763Z,9.60
2023-07-25T12:39:21.314Z,10.20
2023-07-25T12:41:49.098Z,9.20
2023-07-25T12:44:16.798Z,9.40
2023-07-25T12:46:44.596Z,8.80
2023-07-25T12:49:12.498Z,9.40
2023-07-25T12:51:40.243Z,9.20
2023-07-25T12:54:08.142Z,10.30
2023-07-25T12:56:36.170Z,11.90
2023-07-25T12:59:04.128Z,9.20
2023-07-25T13:01:32.282Z,9.80
2023-07-25T13:04:00.427Z,9.40
2023-07-25T13:06:28.479Z,10.30
2023-07-25T13:08:56.280Z,11.50
2023-07-25T13:11:23.909Z,9.10
2023-07-25T13:13:51.714Z,10.50
2023-07-25T13:16:19.475Z,14.70
2023-07-25T13:18:47.263Z,9.00
2023-07-25T13:21:15.388Z,9.20
2023-07-25T13:23:43.197Z,11.40
2023-07-25T13:26:10.971Z,10.40
2023-07-25T13:28:38.810Z,10.00
2023-07-25T13:31:06.583Z,10.30
2023-07-25T13:33:34.415Z,9.00
2023-07-25T13:36:02.476Z,9.50
2023-07-25T13:38:30.268Z,10.40
2023-07-25T13:40:57.899Z,8.30
2023-07-25T13:43:25.823Z,11.90
2023-07-25T13:45:53.732Z,9.00
2023-07-25T13:48:22.274Z,12.90
2023-07-25T13:50:54.374Z,9.40
2023-07-25T13:53:23.214Z,10.00
2023-07-25T13:55:52.100Z,9.40
2023-07-25T14:00:53.787Z,9.10
2023-07-25T14:03:21.598Z,8.90
2023-07-25T14:05:49.331Z,9.40
2023-07-25T14:08:17.068Z,9.80
2023-07-25T14:10:45.197Z,10.40
2023-07-25T14:13:12.854Z,9.40
2023-07-25T14:15:41.907Z,8.90
2023-07-25T14:18:09.638Z,10.10
2023-07-25T14:20:39.309Z,9.40
2023-07-25T14:23:07.122Z,9.90
2023-07-25T14:25:34.906Z,10.40
2023-07-25T14:28:02.571Z,10.90
2023-07-25T14:30:31.308Z,10.00
2023-07-25T14:32:59.653Z,10.40
2023-07-25T14:35:27.687Z,12.00
2023-07-25T14:37:57.698Z,9.80
2023-07-25T14:40:26.434Z,9.90
2023-07-25T14:42:54.118Z,9.70
2023-07-25T14:45:22.039Z,9.40
2023-07-25T14:47:50.196Z,10.10
2023-07-25T14:50:17.986Z,15.30
2023-07-25T14:52:46.013Z,10.00
2023-07-25T14:55:14.581Z,10.00
2023-07-25T14:57:42.456Z,12.10
2023-07-25T15:00:10.969Z,11.50
2023-07-25T15:02:39.032Z,12.20
2023-07-25T15:05:07.230Z,10.90
2023-07-25T15:07:35.415Z,10.00
2023-07-25T15:10:04.144Z,10.20
2023-07-25T15:12:32.579Z,12.40
2023-07-25T15:15:00.413Z,10.50
2023-07-25T15:17:28.279Z,11.10
2023-07-25T15:20:00.377Z,10.10
2023-07-25T15:22:28.482Z,13.60
2023-07-25T15:24:56.474Z,13.70
2023-07-25T15:27:24.340Z,9.50
2023-07-25T15:29:52.393Z,10.00
2023-07-25T15:32:20.479Z,9.60
2023-07-25T15:34:49.418Z,17.40
2023-07-25T15:37:17.426Z,9.30
2023-07-25T15:39:45.040Z,14.50
2023-07-25T15:42:13.024Z,11.00
2023-07-25T15:44:40.875Z,10.80
2023-07-25T15:47:08.610Z,10.90
2023-07-25T15:49:36.454Z,12.90
2023-07-25T15:52:04.545Z,9.80
2023-07-25T15:54:32.222Z,9.40
2023-07-25T15:56:59.937Z,9.20
2023-07-25T15:59:27.957Z,9.80
2023-07-25T16:01:55.779Z,9.20
2023-07-25T16:04:23.445Z,12.20
2023-07-25T16:06:51.223Z,10.70
2023-07-25T16:09:19.465Z,14.60
2023-07-25T16:11:47.174Z,10.10
2023-07-25T16:14:15.153Z,9.70
2023-07-25T16:16:43.097Z,11.60
2023-07-25T16:19:10.729Z,9.10
2023-07-25T16:21:38.508Z,11.20
2023-07-25T16:24:06.520Z,9.60
2023-07-25T16:26:34.347Z,11.40
2023-07-25T16:29:02.055Z,10.70
2023-07-25T16:31:33.071Z,11.30
2023-07-25T16:34:01.211Z,10.00
2023-07-25T16:36:29.087Z,10.30
2023-07-25T16:38:56.882Z,10.90
2023-07-25T16:41:24.532Z,15.90
2023-07-25T16:43:52.445Z,17.80
2023-07-25T16:46:20.272Z,9.40
2023-07-25T16:48:48.156Z,17.20
2023-07-25T16:51:16.282Z,14.90
2023-07-25T16:53:43.938Z,12.00
2023-07-25T16:56:11.636Z,18.20
2023-07-25T16:58:39.578Z,10.80
2023-07-25T17:01:07.531Z,16.60
2023-07-25T17:03:35.433Z,25.30
2023-07-25T17:06:05.198Z,14.70
2023-07-25T17:08:33.257Z,14.80
2023-07-25T17:11:05.949Z,14.40
2023-07-25T17:13:36.937Z,23.00
2023-07-25T17:16:07.683Z,20.20
2023-07-25T17:18:35.544Z,34.00
2023-07-25T17:21:03.170Z,26.40
2023-07-25T17:23:31.098Z,17.80
2023-07-25T17:25:58.859Z,17.30
2023-07-25T17:28:26.824Z,19.80
2023-07-25T17:30:55.526Z,20.20
2023-07-25T17:33:23.472Z,19.90
2023-07-25T17:35:51.517Z,23.80
2023-07-25T17:38:19.627Z,26.80
2023-07-25T17:40:48.764Z,40.80
2023-07-25T17:43:16.602Z,44.50
2023-07-25T17:45:44.378Z,22.80
2023-07-25T17:48:12.143Z,40.50
2023-07-25T17:53:07.703Z,30.20
2023-07-25T17:55:35.466Z,32.90
2023-07-25T18:00:30.796Z,29.90
2023-07-25T18:02:59.022Z,34.30
2023-07-25T18:05:26.867Z,21.30
2023-07-25T18:07:54.610Z,11.60
2023-07-25T18:10:22.424Z,38.10
2023-07-25T18:15:17.729Z,13.00
2023-07-25T18:17:45.817Z,9.50
2023-07-25T18:20:13.755Z,13.30
2023-07-25T18:22:41.427Z,11.40
2023-07-25T18:27:37.006Z,10.90
2023-07-25T18:30:05.488Z,13.60
2023-07-25T18:32:33.174Z,13.20
2023-07-25T18:37:28.421Z,13.20
2023-07-25T18:42:24.275Z,12.70
2023-07-25T18:44:52.002Z,14.00
2023-07-25T18:47:33.604Z,14.30
2023-07-25T18:50:02.668Z,12.40
2023-07-25T18:52:30.442Z,12.00
2023-07-25T18:57:25.814Z,12.00
2023-07-25T18:59:53.559Z,15.60
2023-07-25T19:04:49.629Z,12.50
2023-07-25T19:07:18.532Z,16.80
2023-07-25T19:09:46.364Z,12.50
2023-07-25T19:12:14.307Z,11.30
2023-07-25T19:14:43.035Z,15.00
2023-07-25T19:19:39.192Z,11.40
2023-07-25T19:22:07.652Z,14.60
2023-07-25T19:24:35.444Z,14.30
2023-07-25T19:27:03.356Z,14.70
2023-07-25T19:29:31.185Z,11.60
2023-07-25T19:31:58.776Z,14.00
2023-07-25T19:34:26.464Z,12.40
2023-07-25T19:36:54.472Z,14.10
2023-07-25T19:39:25.269Z,13.50
2023-07-25T19:44:22.093Z,13.60
2023-07-25T19:46:52.395Z,11.80
2023-07-25T19:49:20.674Z,14.50
2023-07-25T19:51:48.462Z,18.00
2023-07-25T19:56:43.977Z,13.80
2023-07-25T20:01:39.239Z,12.10
2023-07-25T20:04:07.184Z,16.30
2023-07-25T20:06:35.446Z,15.90
2023-07-25T20:09:03.148Z,12.20
2023-07-25T20:13:59.372Z,14.10
2023-07-25T20:16:27.118Z,13.60
2023-07-25T20:18:55.065Z,16.20
2023-07-25T20:23:50.205Z,18.40
2023-07-25T20:26:18.237Z,12.50
2023-07-25T20:28:45.925Z,19.50
2023-07-25T20:33:44.758Z,23.10
2023-07-25T20:36:12.376Z,15.30
2023-07-25T20:38:40.099Z,14.30
2023-07-25T20:43:35.545Z,14.70
2023-07-25T20:46:04.517Z,24.90
2023-07-25T20:48:32.964Z,15.30
2023-07-25T20:51:01.274Z,11.60
2023-07-25T20:53:29.043Z,12.70
2023-07-25T20:58:24.969Z,15.00
2023-07-25T21:00:52.548Z,11.40
2023-07-25T21:03:20.347Z,14.60
2023-07-25T21:05:48.285Z,16.10
2023-07-25T21:10:43.530Z,22.90
2023-07-25T21:13:11.102Z,19.20
2023-07-25T21:15:38.720Z,17.80
2023-07-25T21:18:13.206Z,16.60
2023-07-25T21:20:42.727Z,14.30
2023-07-25T21:23:11.624Z,22.00
2023-07-25T21:25:39.193Z,12.80
2023-07-25T21:28:06.776Z,12.10
2023-07-25T21:30:34.350Z,15.20
2023-07-25T21:33:02.041Z,15.70
2023-07-25T21:37:57.118Z,19.80
2023-07-25T21:40:25.072Z,14.50
2023-07-25T21:42:52.783Z,12.60
2023-07-25T21:45:20.536Z,16.50
2023-07-25T21:47:48.162Z,17.00
2023-07-25T21:50:15.923Z,17.60
2023-07-25T21:52:43.661Z,15.20
2023-07-25T21:55:11.306Z,12.90
2023-07-25T21:57:38.939Z,13.70
2023-07-25T22:02:42.427Z,12.20
2023-07-25T22:07:39.856Z,14.80
2023-07-25T22:10:07.850Z,16.30
2023-07-25T22:12:35.527Z,13.30
2023-07-25T22:15:03.135Z,12.50
2023-07-25T22:19:58.273Z,13.90
2023-07-25T22:22:25.853Z,14.90
2023-07-25T22:24:53.484Z,18.00
2023-07-25T22:27:21.221Z,12.80
2023-07-25T22:29:48.877Z,9.40
2023-07-25T22:32:16.722Z,19.10
2023-07-25T22:34:44.396Z,12.30
2023-07-25T22:44:34.582Z,13.20
2023-07-25T22:47:02.265Z,22.20
2023-07-25T22:51:57.396Z,17.50
2023-07-25T22:54:25.125Z,18.40
2023-07-25T22:59:20.196Z,13.90
2023-07-25T23:01:47.836Z,14.20
2023-07-25T23:09:10.412Z,15.10
2023-07-25T23:11:38.043Z,16.30
2023-07-25T23:14:05.604Z,11.80
2023-07-25T23:16:33.391Z,10.90
2023-07-25T23:19:01.461Z,11.90
2023-07-25T23:26:24.052Z,15.90
2023-07-25T23:28:51.561Z,13.70
2023-07-25T23:31:19.316Z,13.40
2023-07-25T23:36:14.851Z,12.20
2023-07-25T23:38:42.385Z,12.90
2023-07-25T23:41:09.903Z,15.90
2023-07-25T23:43:37.447Z,13.60
2023-07-25T23:46:04.922Z,16.30
2023-07-25T23:48:36.685Z,13.00
2023-07-25T23:51:04.400Z,18.30
2023-07-25T23:58:26.981Z,14.90
